createdAt,value
2018-11-26T00:01:07.284Z,6.06
2018-11-26T00:02:17.448Z,6.08
2018-11-26T00:03:27.340Z,6.17
2018-11-26T00:04:37.490Z,6.11
2018-11-26T00:05:47.118Z,6.22
2018-11-26T00:06:57.287Z,6.18
2018-11-26T00:08:07.458Z,6.15
2018-11-26T00:09:17.355Z,6.18
2018-11-26T00:10:27.515Z,6.22
2018-11-26T00:11:37.414Z,6.19
2018-11-26T00:12:47.595Z,6.12
2018-11-26T00:13:57.760Z,6.12
2018-11-26T00:15:07.667Z,6.06
2018-11-26T00:16:17.837Z,6.04
2018-11-26T00:17:28.000Z,6.04
2018-11-26T00:18:38.147Z,6.09
2018-11-26T00:19:48.297Z,6.06
2018-11-26T00:20:58.455Z,5.94
2018-11-26T00:22:08.619Z,6.01
2018-11-26T00:23:18.776Z,6.01
2018-11-26T00:24:28.665Z,5.9
2018-11-26T00:25:38.842Z,5.97
2018-11-26T00:26:48.736Z,6.03
2018-11-26T00:27:58.637Z,6.06
2018-11-26T00:29:08.536Z,6.12
2018-11-26T00:30:18.478Z,6.11
2018-11-26T00:31:28.638Z,5.99
2018-11-26T00:32:38.545Z,5.99
2018-11-26T00:33:48.712Z,5.91
2018-11-26T00:34:58.877Z,6.03
2018-11-26T00:36:09.036Z,6.06
2018-11-26T00:37:19.200Z,6.03
2018-11-26T00:38:29.350Z,6.11
2018-11-26T00:39:39.516Z,5.97
2018-11-26T00:40:49.668Z,5.97
2018-11-26T00:41:59.823Z,5.97
2018-11-26T00:43:09.989Z,6.03
2018-11-26T00:44:19.878Z,6.06
2018-11-26T00:45:30.038Z,6.09
2018-11-26T00:46:40.201Z,6.06
2018-11-26T00:47:50.097Z,6.14
2018-11-26T00:49:00.254Z,6.08
2018-11-26T00:50:10.422Z,6.06
2018-11-26T00:51:20.575Z,6.09
2018-11-26T00:52:30.763Z,6.09
2018-11-26T00:53:40.393Z,6.08
2018-11-26T00:54:50.559Z,6.12
2018-11-26T00:56:00.724Z,6.09
2018-11-26T00:57:10.884Z,6.09
2018-11-26T00:58:21.046Z,6.11
2018-11-26T00:59:31.198Z,6.09
2018-11-26T01:00:41.087Z,6.14
2018-11-26T01:01:51.258Z,6.12
2018-11-26T01:03:00.896Z,6.04
2018-11-26T01:04:11.063Z,6.14
2018-11-26T01:05:21.220Z,6.12
2018-11-26T01:06:31.378Z,6.09
2018-11-26T01:07:41.555Z,6.09
2018-11-26T01:08:51.718Z,6.03
2018-11-26T01:10:01.876Z,6.15
2018-11-26T01:11:12.085Z,6.11
2018-11-26T01:12:22.246Z,6.11
2018-11-26T01:13:32.139Z,6.03
2018-11-26T01:14:42.299Z,6.27
2018-11-26T01:15:52.195Z,6.11
2018-11-26T01:17:02.357Z,6.06
2018-11-26T01:18:12.519Z,6.17
2018-11-26T01:19:22.424Z,6.04
2018-11-26T01:20:32.616Z,5.96
2018-11-26T01:21:42.775Z,5.97
2018-11-26T01:22:52.924Z,5.94
2018-11-26T01:24:03.082Z,5.93
2018-11-26T01:25:13.237Z,6
2018-11-26T01:26:23.396Z,6.03
2018-11-26T01:27:33.562Z,5.99
2018-11-26T01:28:43.722Z,6.01
2018-11-26T01:29:53.877Z,6.04
2018-11-26T01:31:04.042Z,6.14
2018-11-26T01:32:14.201Z,5.97
2018-11-26T01:33:24.143Z,5.94
2018-11-26T01:34:34.303Z,5.96
2018-11-26T01:35:44.236Z,5.96
2018-11-26T01:36:54.390Z,5.93
2018-11-26T01:38:04.287Z,5.94
2018-11-26T01:39:14.449Z,5.86
2018-11-26T01:40:24.646Z,6
2018-11-26T01:41:34.804Z,5.96
2018-11-26T01:42:44.963Z,5.94
2018-11-26T01:43:55.123Z,5.82
2018-11-26T01:45:05.286Z,5.97
2018-11-26T01:46:15.439Z,5.94
2018-11-26T01:47:25.596Z,5.97
2018-11-26T01:48:35.765Z,5.97
2018-11-26T01:49:45.925Z,5.96
2018-11-26T01:50:55.811Z,5.99
2018-11-26T01:52:05.971Z,5.89
2018-11-26T01:53:15.863Z,5.86
2018-11-26T01:54:25.752Z,5.93
2018-11-26T01:55:35.641Z,5.74
2018-11-26T01:56:45.811Z,5.81
2018-11-26T01:57:55.711Z,5.85
2018-11-26T01:59:05.875Z,5.85
2018-11-26T02:00:15.523Z,5.86
2018-11-26T02:01:25.685Z,5.86
2018-11-26T02:02:35.579Z,5.75
2018-11-26T02:03:45.741Z,5.83
2018-11-26T02:04:55.895Z,5.83
2018-11-26T02:06:05.816Z,5.72
2018-11-26T02:07:15.981Z,5.71
2018-11-26T02:08:26.149Z,5.67
2018-11-26T02:09:36.043Z,5.65
2018-11-26T02:10:46.207Z,5.75
2018-11-26T02:11:55.578Z,5.76
2018-11-26T02:13:05.737Z,5.83
2018-11-26T02:14:15.896Z,5.74
2018-11-26T02:15:26.051Z,5.72
2018-11-26T02:16:36.206Z,5.89
2018-11-26T02:17:46.393Z,5.86
2018-11-26T02:18:56.564Z,5.76
2018-11-26T02:20:06.470Z,5.86
2018-11-26T02:21:16.631Z,5.78
2018-11-26T02:22:26.791Z,5.79
2018-11-26T02:23:36.946Z,5.79
2018-11-26T02:24:47.099Z,5.74
2018-11-26T02:25:56.742Z,5.79
2018-11-26T02:27:06.904Z,5.72
2018-11-26T02:28:16.796Z,5.63
2018-11-26T02:29:26.690Z,5.64
2018-11-26T02:30:36.847Z,5.63
2018-11-26T02:31:47.005Z,5.64
2018-11-26T02:32:57.173Z,5.71
2018-11-26T02:34:07.340Z,5.72
2018-11-26T02:35:17.515Z,5.67
2018-11-26T02:36:27.708Z,5.68
2018-11-26T02:37:37.873Z,5.72
2018-11-26T02:38:48.052Z,5.68
2018-11-26T02:39:58.213Z,5.79
2018-11-26T02:41:08.366Z,5.78
2018-11-26T02:42:18.518Z,5.75
2018-11-26T02:43:28.673Z,5.76
2018-11-26T02:44:38.560Z,5.72
2018-11-26T02:45:48.710Z,5.81
2018-11-26T02:46:58.864Z,5.83
2018-11-26T02:48:09.019Z,5.83
2018-11-26T02:49:19.184Z,5.78
2018-11-26T02:50:29.091Z,5.86
2018-11-26T02:51:39.241Z,5.81
2018-11-26T02:52:49.396Z,5.78
2018-11-26T02:53:59.551Z,5.76
2018-11-26T02:55:09.720Z,5.74
2018-11-26T02:56:19.619Z,5.74
2018-11-26T02:57:29.835Z,5.72
2018-11-26T02:58:39.999Z,5.75
2018-11-26T02:59:50.155Z,5.75
2018-11-26T03:01:00.317Z,5.65
2018-11-26T03:02:10.486Z,5.74
2018-11-26T03:03:20.637Z,5.72
2018-11-26T03:04:30.795Z,5.74
2018-11-26T03:05:40.956Z,5.68
2018-11-26T03:06:51.122Z,5.71
2018-11-26T03:08:01.279Z,5.78
2018-11-26T03:09:11.174Z,5.67
2018-11-26T03:10:21.334Z,5.61
2018-11-26T03:11:31.486Z,5.68
2018-11-26T03:12:41.690Z,5.75
2018-11-26T03:13:51.850Z,5.78
2018-11-26T03:15:02.003Z,5.82
2018-11-26T03:16:12.169Z,5.76
2018-11-26T03:17:22.330Z,5.86
2018-11-26T03:18:32.487Z,5.89
2018-11-26T03:19:42.646Z,5.86
2018-11-26T03:20:52.800Z,5.83
2018-11-26T03:22:02.959Z,5.82
2018-11-26T03:23:13.131Z,5.74
2018-11-26T03:24:22.759Z,5.68
2018-11-26T03:25:32.656Z,5.76
2018-11-26T03:26:42.811Z,5.67
2018-11-26T03:27:52.727Z,5.64
2018-11-26T03:29:02.888Z,5.67
2018-11-26T03:30:13.077Z,5.63
2018-11-26T03:31:23.315Z,5.63
2018-11-26T03:32:33.511Z,5.63
2018-11-26T03:33:43.678Z,5.71
2018-11-26T03:34:53.307Z,5.61
2018-11-26T03:36:03.497Z,5.63
2018-11-26T03:37:13.458Z,5.68
2018-11-26T03:38:23.362Z,5.65
2018-11-26T03:39:33.550Z,5.67
2018-11-26T03:40:43.704Z,5.67
2018-11-26T03:41:53.849Z,5.63
2018-11-26T03:43:03.755Z,5.63
2018-11-26T03:44:13.661Z,5.65
2018-11-26T03:45:23.823Z,5.61
2018-11-26T03:46:34.004Z,5.61
2018-11-26T03:47:44.161Z,5.6
2018-11-26T03:48:54.340Z,5.65
2018-11-26T03:50:04.522Z,5.61
2018-11-26T03:51:14.438Z,5.65
2018-11-26T03:52:24.600Z,5.63
2018-11-26T03:53:34.760Z,5.65
2018-11-26T03:54:45.003Z,5.65
2018-11-26T03:55:55.162Z,5.61
2018-11-26T03:57:05.060Z,5.68
2018-11-26T03:58:15.222Z,5.65
2018-11-26T03:59:25.396Z,5.63
2018-11-26T04:00:35.556Z,5.68
2018-11-26T04:01:45.720Z,5.64
2018-11-26T04:02:55.900Z,5.53
2018-11-26T04:04:06.061Z,5.58
2018-11-26T04:05:16.218Z,5.63
2018-11-26T04:06:26.111Z,5.51
2018-11-26T04:07:36.265Z,5.56
2018-11-26T04:08:46.164Z,5.67
2018-11-26T04:09:56.059Z,5.64
2018-11-26T04:11:06.217Z,5.46
2018-11-26T04:12:16.113Z,5.65
2018-11-26T04:13:26.285Z,5.61
2018-11-26T04:14:36.182Z,5.57
2018-11-26T04:15:46.077Z,5.53
2018-11-26T04:16:55.972Z,5.56
2018-11-26T04:18:06.129Z,5.49
2018-11-26T04:19:16.281Z,5.43
2018-11-26T04:20:25.942Z,5.54
2018-11-26T04:21:36.114Z,5.51
2018-11-26T04:22:46.015Z,5.63
2018-11-26T04:23:56.186Z,5.6
2018-11-26T04:25:06.352Z,5.67
2018-11-26T04:26:16.519Z,5.61
2018-11-26T04:27:26.141Z,5.63
2018-11-26T04:28:36.315Z,5.43
2018-11-26T04:29:46.477Z,5.45
2018-11-26T04:30:56.372Z,5.54
2018-11-26T04:32:06.542Z,5.45
2018-11-26T04:33:16.697Z,5.42
2018-11-26T04:34:26.862Z,5.46
2018-11-26T04:35:37.025Z,5.43
2018-11-26T04:36:46.653Z,5.42
2018-11-26T04:37:56.553Z,5.31
2018-11-26T04:39:06.713Z,5.31
2018-11-26T04:40:16.608Z,5.36
2018-11-26T04:41:26.504Z,5.38
2018-11-26T04:42:36.407Z,5.3
2018-11-26T04:43:46.565Z,5.22
2018-11-26T04:44:56.716Z,5.25
2018-11-26T04:46:06.877Z,5.3
2018-11-26T04:47:16.772Z,5.28
2018-11-26T04:48:26.689Z,5.24
2018-11-26T04:49:36.852Z,5.22
2018-11-26T04:50:46.746Z,5.21
2018-11-26T04:51:56.641Z,5.22
2018-11-26T04:53:06.804Z,5.21
2018-11-26T04:54:16.971Z,5.25
2018-11-26T04:55:27.115Z,5.24
2018-11-26T04:56:37.272Z,5.18
2018-11-26T04:57:47.912Z,5.25
2018-11-26T04:58:58.067Z,5.28
2018-11-26T05:00:07.960Z,5.21
2018-11-26T05:01:18.114Z,5.24
2018-11-26T05:02:28.278Z,5.22
2018-11-26T05:03:38.177Z,5.28
2018-11-26T05:04:48.326Z,5.2
2018-11-26T05:05:58.494Z,5.22
2018-11-26T05:07:08.666Z,5.13
2018-11-26T05:08:18.828Z,5.12
2018-11-26T05:09:28.987Z,5.1
2018-11-26T05:10:39.140Z,5.12
2018-11-26T05:11:49.309Z,4.96
2018-11-26T05:12:59.210Z,5.03
2018-11-26T05:14:09.370Z,5
2018-11-26T05:15:19.280Z,5.02
2018-11-26T05:16:29.172Z,4.97
2018-11-26T05:17:39.332Z,4.99
2018-11-26T05:18:49.497Z,4.97
2018-11-26T05:19:59.660Z,4.92
2018-11-26T05:21:09.868Z,4.97
2018-11-26T05:22:20.049Z,4.97
2018-11-26T05:23:29.948Z,5
2018-11-26T05:24:40.121Z,5.02
2018-11-26T05:25:50.270Z,4.94
2018-11-26T05:27:00.439Z,4.89
2018-11-26T05:28:10.330Z,4.77
2018-11-26T05:29:20.500Z,4.77
2018-11-26T05:30:30.182Z,4.75
2018-11-26T05:31:40.388Z,4.77
2018-11-26T05:32:50.553Z,4.72
2018-11-26T05:34:00.508Z,4.69
2018-11-26T05:35:10.670Z,4.77
2018-11-26T05:36:20.826Z,4.7
2018-11-26T05:37:30.992Z,4.77
2018-11-26T05:38:41.151Z,4.72
2018-11-26T05:39:51.299Z,4.63
2018-11-26T05:41:01.461Z,4.67
2018-11-26T05:42:11.359Z,4.66
2018-11-26T05:43:21.523Z,4.73
2018-11-26T05:44:31.417Z,4.73
2018-11-26T05:45:41.308Z,4.72
2018-11-26T05:46:51.454Z,4.72
2018-11-26T05:48:01.606Z,4.72
2018-11-26T05:49:11.758Z,4.72
2018-11-26T05:50:21.646Z,4.72
2018-11-26T05:51:31.793Z,4.7
2018-11-26T05:52:41.950Z,4.73
2018-11-26T05:53:51.849Z,4.73
2018-11-26T05:55:02.003Z,4.67
2018-11-26T05:56:12.159Z,4.6
2018-11-26T05:57:22.351Z,4.6
2018-11-26T05:58:32.236Z,4.63
2018-11-26T05:59:42.398Z,4.63
2018-11-26T06:00:52.295Z,4.54
2018-11-26T06:02:02.463Z,4.48
2018-11-26T06:03:12.615Z,4.59
2018-11-26T06:04:22.506Z,4.59
2018-11-26T06:05:32.680Z,4.67
2018-11-26T06:06:42.568Z,4.6
2018-11-26T06:07:52.720Z,4.66
2018-11-26T06:09:02.881Z,4.55
2018-11-26T06:10:13.051Z,4.55
2018-11-26T06:11:23.218Z,4.54
2018-11-26T06:12:33.375Z,4.65
2018-11-26T06:13:43.527Z,4.65
2018-11-26T06:14:53.405Z,4.52
2018-11-26T06:16:03.290Z,4.52
2018-11-26T06:17:13.192Z,4.42
2018-11-26T06:18:23.348Z,4.36
2018-11-26T06:19:33.509Z,4.4
2018-11-26T06:20:43.670Z,4.42
2018-11-26T06:21:53.823Z,4.51
2018-11-26T06:23:03.981Z,4.47
2018-11-26T06:24:14.139Z,4.45
2018-11-26T06:25:24.306Z,4.44
2018-11-26T06:26:34.461Z,4.47
2018-11-26T06:27:44.612Z,4.41
2018-11-26T06:28:54.776Z,4.44
2018-11-26T06:30:04.683Z,4.44
2018-11-26T06:31:14.849Z,4.52
2018-11-26T06:32:25.877Z,4.5
2018-11-26T06:33:36.034Z,4.42
2018-11-26T06:34:47.438Z,4.4
2018-11-26T06:35:57.585Z,4.32
2018-11-26T06:37:07.755Z,4.4
2018-11-26T06:38:17.955Z,4.32
2018-11-26T06:39:28.103Z,4.23
2018-11-26T06:40:38.263Z,4.2
2018-11-26T06:41:48.418Z,4.23
2018-11-26T06:42:58.573Z,4.09
2018-11-26T06:44:08.726Z,4.09
2018-11-26T06:45:18.883Z,4.22
2018-11-26T06:46:29.042Z,4.11
2018-11-26T06:47:39.196Z,4.22
2018-11-26T06:48:50.002Z,4.14
2018-11-26T06:50:00.160Z,4.11
2018-11-26T06:51:10.340Z,4.11
2018-11-26T06:52:20.495Z,4.12
2018-11-26T06:53:30.387Z,4.15
2018-11-26T06:54:40.283Z,4.08
2018-11-26T06:55:50.180Z,4.09
2018-11-26T06:57:00.062Z,3.96
2018-11-26T06:58:09.948Z,4
2018-11-26T06:59:19.837Z,4.04
2018-11-26T07:00:30.005Z,4
2018-11-26T07:01:39.921Z,4.04
2018-11-26T07:02:50.116Z,3.97
2018-11-26T07:04:00.277Z,4
2018-11-26T07:05:10.436Z,3.93
2018-11-26T07:06:20.586Z,3.91
2018-11-26T07:07:30.747Z,3.84
2018-11-26T07:08:40.906Z,3.96
2018-11-26T07:09:51.056Z,3.86
2018-11-26T07:11:01.215Z,3.79
2018-11-26T07:12:11.378Z,3.88
2018-11-26T07:13:21.548Z,3.88
2018-11-26T07:14:31.439Z,3.84
2018-11-26T07:15:41.344Z,3.88
2018-11-26T07:16:51.499Z,3.98
2018-11-26T07:18:01.654Z,4.02
2018-11-26T07:19:11.749Z,3.94
2018-11-26T07:20:21.658Z,3.93
2018-11-26T07:21:31.829Z,3.93
2018-11-26T07:22:41.981Z,3.88
2018-11-26T07:23:52.138Z,3.94
2018-11-26T07:25:02.300Z,3.87
2018-11-26T07:26:12.457Z,3.83
2018-11-26T07:27:22.631Z,3.86
2018-11-26T07:28:32.534Z,3.94
2018-11-26T07:29:42.154Z,3.9
2018-11-26T07:30:52.049Z,3.91
2018-11-26T07:32:02.223Z,3.94
2018-11-26T07:33:12.114Z,3.87
2018-11-26T07:34:22.264Z,3.83
2018-11-26T07:35:32.426Z,3.86
2018-11-26T07:36:42.574Z,3.84
2018-11-26T07:37:52.737Z,3.91
2018-11-26T07:39:02.939Z,4.04
2018-11-26T07:40:13.096Z,3.97
2018-11-26T07:41:23.257Z,3.96
2018-11-26T07:42:33.155Z,3.91
2018-11-26T07:43:43.036Z,3.88
2018-11-26T07:44:53.190Z,3.79
2018-11-26T07:46:03.081Z,3.96
2018-11-26T07:47:13.234Z,3.91
2018-11-26T07:48:23.403Z,3.86
2018-11-26T07:49:33.303Z,3.91
2018-11-26T07:50:43.469Z,3.93
2018-11-26T07:51:53.631Z,3.87
2018-11-26T07:53:03.520Z,3.96
2018-11-26T07:54:13.676Z,3.91
2018-11-26T07:55:23.833Z,3.97
2018-11-26T07:56:33.995Z,3.98
2018-11-26T07:57:44.151Z,3.86
2018-11-26T07:58:54.048Z,4.06
2018-11-26T08:00:04.204Z,3.93
2018-11-26T08:01:14.364Z,3.97
2018-11-26T08:02:24.525Z,3.94
2018-11-26T08:03:34.695Z,3.94
2018-11-26T08:04:44.589Z,3.84
2018-11-26T08:05:54.481Z,3.87
2018-11-26T08:07:04.648Z,3.83
2018-11-26T08:08:14.800Z,3.98
2018-11-26T08:09:24.956Z,3.98
2018-11-26T08:10:35.120Z,3.93
2018-11-26T08:11:45.271Z,3.94
2018-11-26T08:12:55.507Z,3.97
2018-11-26T08:14:05.730Z,3.94
2018-11-26T08:15:15.888Z,3.9
2018-11-26T08:16:26.054Z,3.84
2018-11-26T08:17:35.678Z,3.91
2018-11-26T08:18:45.839Z,3.93
2018-11-26T08:19:56.035Z,3.98
2018-11-26T08:21:06.188Z,3.91
2018-11-26T08:22:16.341Z,3.79
2018-11-26T08:23:26.230Z,3.9
2018-11-26T08:24:36.388Z,3.88
2018-11-26T08:25:46.285Z,3.84
2018-11-26T08:26:56.442Z,3.91
2018-11-26T08:28:06.607Z,3.97
2018-11-26T08:29:16.502Z,3.93
2018-11-26T08:30:26.676Z,3.97
2018-11-26T08:31:36.839Z,3.98
2018-11-26T08:32:46.992Z,4.04
2018-11-26T08:33:56.893Z,3.9
2018-11-26T08:35:07.051Z,3.9
2018-11-26T08:36:17.246Z,3.98
2018-11-26T08:37:27.144Z,3.98
2018-11-26T08:38:37.297Z,4
2018-11-26T08:39:47.182Z,3.94
2018-11-26T08:40:57.336Z,4.08
2018-11-26T08:42:07.495Z,4.11
2018-11-26T08:43:17.652Z,4.16
2018-11-26T08:44:27.820Z,4.23
2018-11-26T08:45:38.206Z,4.18
2018-11-26T08:46:48.617Z,4.34
2018-11-26T08:47:58.767Z,4.27
2018-11-26T08:49:08.682Z,4.29
2018-11-26T08:50:19.098Z,4.3
2018-11-26T08:51:29.254Z,4.32
2018-11-26T08:52:39.145Z,4.34
2018-11-26T08:53:49.034Z,4.29
2018-11-26T08:54:59.184Z,4.33
2018-11-26T08:56:09.340Z,4.45
2018-11-26T08:57:19.221Z,4.42
2018-11-26T08:58:29.387Z,4.42
2018-11-26T08:59:39.549Z,4.44
2018-11-26T09:00:49.707Z,4.44
2018-11-26T09:01:59.598Z,4.5
2018-11-26T09:03:09.521Z,4.42
2018-11-26T09:04:19.705Z,4.52
2018-11-26T09:05:29.866Z,4.45
2018-11-26T09:06:40.032Z,4.58
2018-11-26T09:07:50.203Z,4.58
2018-11-26T09:09:00.364Z,4.55
2018-11-26T09:10:10.523Z,4.62
2018-11-26T09:11:20.674Z,4.59
2018-11-26T09:12:30.943Z,4.62
2018-11-26T09:13:41.107Z,4.62
2018-11-26T09:14:51.005Z,4.66
2018-11-26T09:16:01.177Z,4.73
2018-11-26T09:17:11.152Z,4.77
2018-11-26T09:18:21.406Z,4.73
2018-11-26T09:19:31.298Z,4.67
2018-11-26T09:20:41.208Z,4.75
2018-11-26T09:21:51.109Z,4.72
2018-11-26T09:23:01.283Z,4.75
2018-11-26T09:24:11.175Z,4.91
2018-11-26T09:25:21.326Z,4.82
2018-11-26T09:26:31.488Z,4.88
2018-11-26T09:27:41.381Z,4.8
2018-11-26T09:28:51.553Z,4.86
2018-11-26T09:30:01.721Z,4.96
2018-11-26T09:31:11.629Z,4.96
2018-11-26T09:32:21.795Z,4.97
2018-11-26T09:33:31.955Z,5
2018-11-26T09:34:42.115Z,5.07
2018-11-26T09:35:52.020Z,5.04
2018-11-26T09:37:02.179Z,4.96
2018-11-26T09:38:13.105Z,5.04
2018-11-26T09:39:23.348Z,5.02
2018-11-26T09:40:33.501Z,4.99
2018-11-26T09:41:43.714Z,5.04
2018-11-26T09:42:53.615Z,5.17
2018-11-26T09:44:03.892Z,5.1
2018-11-26T09:45:14.050Z,5.21
2018-11-26T09:46:23.949Z,5.1
2018-11-26T09:47:34.162Z,5.13
2018-11-26T09:48:44.370Z,5.17
2018-11-26T09:49:54.535Z,5.18
2018-11-26T09:51:04.693Z,5.22
2018-11-26T09:52:21.748Z,5.21
2018-11-26T09:53:31.646Z,5.22
2018-11-26T09:54:41.811Z,5.36
2018-11-26T09:55:51.968Z,5.31
2018-11-26T09:57:02.132Z,5.24
2018-11-26T09:58:12.292Z,5.24
2018-11-26T09:59:22.189Z,5.25
2018-11-26T10:00:32.110Z,5.24
2018-11-26T10:01:42.270Z,5.39
2018-11-26T10:02:52.443Z,5.43
2018-11-26T10:04:02.604Z,5.48
2018-11-26T10:05:12.759Z,5.48
2018-11-26T10:06:22.414Z,5.6
2018-11-26T10:07:32.577Z,5.43
2018-11-26T10:08:42.745Z,5.53
2018-11-26T10:09:52.902Z,5.51
2018-11-26T10:11:03.079Z,5.42
2018-11-26T10:12:13.234Z,5.63
2018-11-26T10:13:23.388Z,5.6
2018-11-26T10:14:33.544Z,5.56
2018-11-26T10:15:43.713Z,5.67
2018-11-26T10:16:53.875Z,5.63
2018-11-26T10:18:04.066Z,5.61
2018-11-26T10:19:14.237Z,5.72
2018-11-26T10:20:24.139Z,5.75
2018-11-26T10:21:34.038Z,5.72
2018-11-26T10:22:44.249Z,5.78
2018-11-26T10:23:54.147Z,5.89
2018-11-26T10:25:10.777Z,5.78
2018-11-26T10:26:20.937Z,5.86
2018-11-26T10:27:31.098Z,5.85
2018-11-26T10:28:41.276Z,5.9
2018-11-26T10:29:51.438Z,5.91
2018-11-26T10:31:01.655Z,5.81
2018-11-26T10:32:11.817Z,5.85
2018-11-26T10:33:22.278Z,5.9
2018-11-26T10:34:31.904Z,5.97
2018-11-26T10:35:42.073Z,6
2018-11-26T10:36:52.290Z,6.18
2018-11-26T10:38:01.930Z,6.12
2018-11-26T10:39:12.104Z,6.19
2018-11-26T10:40:22.017Z,6.19
2018-11-26T10:41:32.179Z,6.17
2018-11-26T10:42:42.082Z,6.25
2018-11-26T10:43:51.466Z,6.27
2018-11-26T10:45:01.112Z,6.25
2018-11-26T10:46:11.023Z,6.28
2018-11-26T10:47:21.189Z,6.06
2018-11-26T10:48:31.349Z,6.12
2018-11-26T10:49:41.525Z,6.21
2018-11-26T10:50:51.440Z,6.19
2018-11-26T10:52:01.606Z,6.22
2018-11-26T10:53:11.768Z,6.27
2018-11-26T10:54:21.663Z,6.28
2018-11-26T10:55:31.560Z,6.08
2018-11-26T10:56:40.931Z,6.01
2018-11-26T10:57:50.566Z,6.15
2018-11-26T10:59:00.459Z,6.12
2018-11-26T11:00:10.625Z,6.14
2018-11-26T11:01:20.784Z,6.09
2018-11-26T11:02:30.946Z,6.17
2018-11-26T11:03:41.125Z,6.11
2018-11-26T11:04:52.675Z,6.18
2018-11-26T11:06:02.831Z,6.15
2018-11-26T11:07:12.989Z,6.04
2018-11-26T11:08:23.822Z,6.25
2018-11-26T11:09:34.155Z,6.3
2018-11-26T11:10:44.370Z,6.17
2018-11-26T11:11:54.530Z,6.31
2018-11-26T11:13:04.163Z,6.22
2018-11-26T11:14:14.111Z,6.21
2018-11-26T11:15:24.273Z,6.18
2018-11-26T11:16:34.423Z,6.3
2018-11-26T11:17:44.639Z,6.3
2018-11-26T11:18:54.544Z,6.31
2018-11-26T11:20:04.715Z,6.27
2018-11-26T11:21:14.617Z,6.38
2018-11-26T11:22:24.521Z,6.33
2018-11-26T11:23:34.681Z,6.36
2018-11-26T11:24:44.846Z,6.31
2018-11-26T11:25:55.004Z,6.41
2018-11-26T11:27:04.907Z,6.36
2018-11-26T11:28:14.810Z,6.38
2018-11-26T11:29:24.171Z,6.41
2018-11-26T11:30:34.060Z,6.38
2018-11-26T11:31:43.682Z,6.44
2018-11-26T11:32:53.594Z,6.37
2018-11-26T11:34:03.482Z,6.48
2018-11-26T11:35:13.415Z,6.43
2018-11-26T11:36:23.304Z,6.44
2018-11-26T11:37:33.186Z,6.54
2018-11-26T11:38:44.014Z,6.43
2018-11-26T11:39:53.985Z,6.49
2018-11-26T11:41:03.864Z,6.44
2018-11-26T11:42:13.486Z,6.4
2018-11-26T11:43:23.650Z,6.4
2018-11-26T11:44:33.278Z,6.27
2018-11-26T11:45:43.227Z,6.36
2018-11-26T11:46:53.115Z,6.36
2018-11-26T11:48:02.738Z,6.38
2018-11-26T11:49:12.891Z,6.38
2018-11-26T11:50:22.785Z,6.43
2018-11-26T11:51:32.167Z,6.44
2018-11-26T11:52:42.054Z,6.43
2018-11-26T11:53:51.943Z,6.49
2018-11-26T11:55:01.847Z,6.44
2018-11-26T11:56:11.472Z,6.51
2018-11-26T11:57:21.355Z,6.52
2018-11-26T11:58:31.241Z,6.74
2018-11-26T11:59:41.117Z,6.71
2018-11-26T12:00:51.003Z,6.62
2018-11-26T12:02:00.626Z,6.61
2018-11-26T12:03:09.980Z,6.51
2018-11-26T12:04:20.135Z,6.58
2018-11-26T12:05:30.032Z,6.52
2018-11-26T12:06:40.179Z,6.59
2018-11-26T12:07:50.064Z,6.58
2018-11-26T12:08:59.685Z,6.52
2018-11-26T12:10:09.881Z,6.49
2018-11-26T12:11:20.039Z,6.52
2018-11-26T12:12:30.190Z,6.55
2018-11-26T12:13:40.127Z,6.51
2018-11-26T12:14:50.011Z,6.62
2018-11-26T12:15:59.897Z,6.58
2018-11-26T12:17:09.522Z,6.51
2018-11-26T12:18:19.411Z,6.52
2018-11-26T12:19:29.294Z,6.48
2018-11-26T12:20:39.178Z,6.59
2018-11-26T12:21:48.840Z,6.62
2018-11-26T12:22:58.990Z,6.64
2018-11-26T12:24:08.880Z,6.7
2018-11-26T12:25:18.776Z,6.67
2018-11-26T12:26:28.398Z,6.7
2018-11-26T12:27:38.285Z,6.73
2018-11-26T12:28:48.167Z,6.81
2018-11-26T12:29:58.053Z,6.77
2018-11-26T12:31:08.200Z,6.77
2018-11-26T12:32:18.354Z,6.84
2018-11-26T12:33:28.507Z,6.89
2018-11-26T12:34:37.858Z,6.88
2018-11-26T12:35:48.012Z,6.81
2018-11-26T12:37:02.514Z,6.87
2018-11-26T12:38:12.665Z,6.91
2018-11-26T12:39:22.350Z,6.85
2018-11-26T12:40:31.974Z,6.89
2018-11-26T12:41:41.597Z,6.89
2018-11-26T12:42:51.219Z,6.81
2018-11-26T12:44:01.373Z,6.8
2018-11-26T12:45:11.265Z,6.8
2018-11-26T12:46:21.148Z,6.87
2018-11-26T12:47:31.042Z,6.88
2018-11-26T12:48:40.931Z,6.85
2018-11-26T12:49:50.819Z,6.87
2018-11-26T12:51:00.709Z,6.85
2018-11-26T12:52:10.595Z,6.84
2018-11-26T12:53:20.515Z,6.85
2018-11-26T12:54:30.651Z,6.84
2018-11-26T12:55:40.278Z,6.79
2018-11-26T12:56:50.253Z,6.8
2018-11-26T12:57:59.606Z,6.85
2018-11-26T12:59:09.752Z,6.85
2018-11-26T13:00:19.630Z,6.84
2018-11-26T13:01:29.389Z,6.76
2018-11-26T13:02:38.748Z,6.77
2018-11-26T13:03:48.106Z,6.84
2018-11-26T13:04:57.866Z,6.88
2018-11-26T13:06:08.019Z,6.87
2018-11-26T13:07:18.164Z,6.81
2018-11-26T13:08:28.052Z,6.74
2018-11-26T13:09:37.417Z,6.64
2018-11-26T13:10:47.043Z,6.84
2018-11-26T13:11:56.922Z,6.76
2018-11-26T13:13:06.809Z,6.81
2018-11-26T13:14:16.953Z,6.77
2018-11-26T13:15:26.364Z,6.73
2018-11-26T13:16:35.763Z,6.73
2018-11-26T13:17:45.648Z,6.79
2018-11-26T13:18:55.538Z,6.81
2018-11-26T13:20:04.897Z,6.81
2018-11-26T13:21:15.060Z,6.74
2018-11-26T13:22:24.680Z,6.76
2018-11-26T13:23:34.306Z,6.79
2018-11-26T13:24:44.453Z,6.74
2018-11-26T13:25:54.608Z,6.74
2018-11-26T13:27:04.518Z,6.89
2018-11-26T13:28:14.673Z,6.85
2018-11-26T13:29:24.822Z,6.87
2018-11-26T13:30:34.976Z,6.81
2018-11-26T13:31:44.869Z,6.87
2018-11-26T13:32:54.755Z,6.81
2018-11-26T13:34:04.913Z,6.85
2018-11-26T13:35:15.207Z,6.84
2018-11-26T13:36:25.091Z,6.88
2018-11-26T13:37:34.980Z,6.87
2018-11-26T13:38:45.124Z,6.79
2018-11-26T13:39:55.006Z,6.84
2018-11-26T13:41:05.159Z,6.84
2018-11-26T13:42:15.316Z,6.84
2018-11-26T13:43:24.964Z,6.81
2018-11-26T13:44:34.860Z,6.77
2018-11-26T13:45:44.752Z,6.77
2018-11-26T13:46:54.629Z,6.88
2018-11-26T13:48:04.514Z,6.87
2018-11-26T13:49:14.458Z,6.84
2018-11-26T13:50:25.479Z,6.85
2018-11-26T13:51:35.582Z,6.88
2018-11-26T13:52:45.160Z,6.87
2018-11-26T13:53:54.468Z,6.76
2018-11-26T13:55:04.344Z,6.8
2018-11-26T13:56:14.451Z,6.79
2018-11-26T13:57:24.285Z,6.81
2018-11-26T13:58:34.379Z,6.84
2018-11-26T13:59:43.693Z,6.7
2018-11-26T14:00:53.266Z,6.76
2018-11-26T14:02:02.840Z,6.84
2018-11-26T14:03:12.410Z,6.74
2018-11-26T14:04:22.241Z,6.69
2018-11-26T14:05:32.078Z,6.81
2018-11-26T14:06:42.028Z,6.7
2018-11-26T14:07:51.609Z,6.74
2018-11-26T14:09:01.717Z,6.79
2018-11-26T14:10:11.562Z,6.73
2018-11-26T14:11:21.399Z,6.69
2018-11-26T14:12:30.714Z,6.67
2018-11-26T14:13:40.290Z,6.76
2018-11-26T14:14:54.216Z,6.8
2018-11-26T14:16:04.202Z,6.71
2018-11-26T14:17:14.293Z,6.7
2018-11-26T14:18:24.396Z,6.7
2018-11-26T14:19:34.238Z,6.62
2018-11-26T14:20:44.072Z,6.69
2018-11-26T14:21:53.910Z,6.62
2018-11-26T14:23:03.757Z,6.66
2018-11-26T14:24:13.600Z,6.67
2018-11-26T14:25:23.181Z,6.66
2018-11-26T14:26:33.276Z,6.67
2018-11-26T14:27:43.163Z,6.56
2018-11-26T14:28:52.994Z,6.61
2018-11-26T14:30:03.088Z,6.59
2018-11-26T14:31:12.660Z,6.59
2018-11-26T14:32:21.974Z,6.66
2018-11-26T14:33:31.813Z,6.64
2018-11-26T14:34:41.402Z,6.67
2018-11-26T14:35:51.238Z,6.64
2018-11-26T14:37:01.131Z,6.61
2018-11-26T14:38:10.445Z,6.59
2018-11-26T14:39:20.291Z,6.67
2018-11-26T14:40:29.866Z,6.66
2018-11-26T14:41:39.442Z,6.54
2018-11-26T14:42:50.016Z,6.58
2018-11-26T14:43:59.624Z,6.43
2018-11-26T14:45:09.278Z,6.48
2018-11-26T14:46:18.855Z,6.38
2018-11-26T14:47:28.950Z,6.43
2018-11-26T14:48:38.789Z,6.43
2018-11-26T14:49:48.624Z,6.46
2018-11-26T14:50:58.201Z,6.55
2018-11-26T14:52:07.775Z,6.51
2018-11-26T14:53:17.665Z,6.51
2018-11-26T14:54:27.513Z,6.36
2018-11-26T14:55:37.095Z,6.41
2018-11-26T14:56:46.932Z,6.38
2018-11-26T14:57:57.032Z,6.37
2018-11-26T14:59:07.132Z,6.38
2018-11-26T15:00:16.247Z,6.41
2018-11-26T15:01:25.849Z,6.36
2018-11-26T15:02:35.431Z,6.37
2018-11-26T15:03:44.739Z,6.38
2018-11-26T15:04:54.570Z,6.31
2018-11-26T15:06:04.452Z,6.41
2018-11-26T15:07:14.546Z,6.38
2018-11-26T15:08:24.645Z,6.36
2018-11-26T15:09:34.476Z,6.38
2018-11-26T15:10:44.310Z,6.36
2018-11-26T15:11:53.628Z,6.33
2018-11-26T15:13:03.482Z,6.3
2018-11-26T15:14:13.060Z,6.22
2018-11-26T15:15:23.215Z,6.28
2018-11-26T15:16:33.315Z,6.33
2018-11-26T15:17:43.224Z,6.28
2018-11-26T15:18:53.052Z,6.28
2018-11-26T15:20:03.147Z,6.33
2018-11-26T15:21:12.804Z,6.34
2018-11-26T15:22:23.011Z,6.3
2018-11-26T15:23:32.961Z,6.31
2018-11-26T15:24:42.856Z,6.31
2018-11-26T15:25:52.952Z,6.28
2018-11-26T15:27:03.057Z,6.28
2018-11-26T15:28:12.895Z,6.22
2018-11-26T15:29:22.989Z,6.25
2018-11-26T15:30:33.093Z,6.25
2018-11-26T15:31:42.938Z,6.19
2018-11-26T15:32:57.788Z,6.37
2018-11-26T15:34:07.649Z,6.22
2018-11-26T15:35:17.772Z,6.19
2018-11-26T15:36:27.354Z,6.25